sensor_id;sensor_type;location;lat;lon;timestamp;P1;durP1;ratioP1;P2;durP2;ratioP2
8104;SDS011;4095;48.942;9.104;2023-02-15T00:01:07;44.20;;;25.20;;
8104;SDS011;4095;48.942;9.104;2023-02-15T00:03:33;37.30;;;25.73;;
8104;SDS011;4095;48.942;9.104;2023-02-15T00:06:00;37.20;;;24.27;;
8104;SDS011;4095;48.942;9.104;2023-02-15T00:08:25;39.93;;;26.30;;
8104;SDS011;4095;48.942;9.104;2023-02-15T00:10:51;38.97;;;25.70;;
8104;SDS011;4095;48.942;9.104;2023-02-15T00:13:17;37.47;;;24.63;;
8104;SDS011;4095;48.942;9.104;2023-02-15T00:15:42;38.47;;;25.17;;
8104;SDS011;4095;48.942;9.104;2023-02-15T00:18:08;36.83;;;25.97;;
8104;SDS011;4095;48.942;9.104;2023-02-15T00:20:34;35.27;;;24.57;;
8104;SDS011;4095;48.942;9.104;2023-02-15T00:22:59;34.27;;;23.80;;
8104;SDS011;4095;48.942;9.104;2023-02-15T00:25:25;37.97;;;25.73;;
8104;SDS011;4095;48.942;9.104;2023-02-15T00:27:50;38.03;;;25.70;;
8104;SDS011;4095;48.942;9.104;2023-02-15T00:30:16;35.37;;;24.97;;
8104;SDS011;4095;48.942;9.104;2023-02-15T00:32:41;34.60;;;22.43;;
8104;SDS011;4095;48.942;9.104;2023-02-15T00:35:07;34.83;;;23.13;;
8104;SDS011;4095;48.942;9.104;2023-02-15T00:37:34;29.50;;;20.83;;
8104;SDS011;4095;48.942;9.104;2023-02-15T00:39:59;35.27;;;23.77;;
8104;SDS011;4095;48.942;9.104;2023-02-15T00:42:25;29.13;;;21.23;;
8104;SDS011;4095;48.942;9.104;2023-02-15T00:44:51;29.30;;;21.60;;
8104;SDS011;4095;48.942;9.104;2023-02-15T00:47:16;28.77;;;20.93;;
8104;SDS011;4095;48.942;9.104;2023-02-15T00:49:42;28.80;;;20.77;;
8104;SDS011;4095;48.942;9.104;2023-02-15T00:52:07;28.37;;;18.70;;
8104;SDS011;4095;48.942;9.104;2023-02-15T00:54:33;30.60;;;18.97;;
8104;SDS011;4095;48.942;9.104;2023-02-15T00:56:59;24.60;;;18.77;;
8104;SDS011;4095;48.942;9.104;2023-02-15T00:59:25;25.17;;;18.37;;
8104;SDS011;4095;48.942;9.104;2023-02-15T01:01:51;25.80;;;18.90;;
8104;SDS011;4095;48.942;9.104;2023-02-15T01:04:17;25.67;;;19.77;;
8104;SDS011;4095;48.942;9.104;2023-02-15T01:06:42;24.50;;;18.67;;
8104;SDS011;4095;48.942;9.104;2023-02-15T01:09:08;23.47;;;17.63;;
8104;SDS011;4095;48.942;9.104;2023-02-15T01:11:34;21.87;;;17.27;;
8104;SDS011;4095;48.942;9.104;2023-02-15T01:13:59;24.57;;;17.17;;
8104;SDS011;4095;48.942;9.104;2023-02-15T01:16:26;25.30;;;17.40;;
8104;SDS011;4095;48.942;9.104;2023-02-15T01:18:52;21.33;;;16.40;;
8104;SDS011;4095;48.942;9.104;2023-02-15T01:21:20;19.60;;;15.77;;
8104;SDS011;4095;48.942;9.104;2023-02-15T01:23:49;20.30;;;16.40;;
8104;SDS011;4095;48.942;9.104;2023-02-15T01:26:14;18.40;;;14.83;;
8104;SDS011;4095;48.942;9.104;2023-02-15T01:28:41;19.73;;;14.93;;
8104;SDS011;4095;48.942;9.104;2023-02-15T01:31:07;18.63;;;14.73;;
8104;SDS011;4095;48.942;9.104;2023-02-15T01:33:35;18.53;;;14.83;;
8104;SDS011;4095;48.942;9.104;2023-02-15T01:36:01;18.43;;;15.33;;
8104;SDS011;4095;48.942;9.104;2023-02-15T01:38:28;18.60;;;14.50;;
8104;SDS011;4095;48.942;9.104;2023-02-15T01:40:53;17.67;;;14.13;;
8104;SDS011;4095;48.942;9.104;2023-02-15T01:43:40;16.73;;;14.13;;
8104;SDS011;4095;48.942;9.104;2023-02-15T01:46:06;21.13;;;15.00;;
8104;SDS011;4095;48.942;9.104;2023-02-15T01:48:34;16.33;;;13.57;;
8104;SDS011;4095;48.942;9.104;2023-02-15T01:51:05;15.77;;;13.60;;
8104;SDS011;4095;48.942;9.104;2023-02-15T01:53:32;16.87;;;12.83;;
8104;SDS011;4095;48.942;9.104;2023-02-15T01:56:15;15.57;;;12.77;;
8104;SDS011;4095;48.942;9.104;2023-02-15T01:58:44;15.87;;;12.97;;
8104;SDS011;4095;48.942;9.104;2023-02-15T02:01:12;16.10;;;13.70;;
8104;SDS011;4095;48.942;9.104;2023-02-15T02:06:18;17.07;;;14.23;;
8104;SDS011;4095;48.942;9.104;2023-02-15T02:08:45;14.97;;;12.80;;
8104;SDS011;4095;48.942;9.104;2023-02-15T02:11:12;16.83;;;13.67;;
8104;SDS011;4095;48.942;9.104;2023-02-15T02:13:39;17.43;;;13.50;;
8104;SDS011;4095;48.942;9.104;2023-02-15T02:16:18;14.23;;;12.33;;
8104;SDS011;4095;48.942;9.104;2023-02-15T02:35:33;18.67;;;12.17;;
8104;SDS011;4095;48.942;9.104;2023-02-15T02:38:15;16.50;;;13.00;;
8104;SDS011;4095;48.942;9.104;2023-02-15T02:41:06;13.03;;;11.63;;
8104;SDS011;4095;48.942;9.104;2023-02-15T02:43:38;18.90;;;12.57;;
8104;SDS011;4095;48.942;9.104;2023-02-15T02:46:07;16.27;;;12.70;;
8104;SDS011;4095;48.942;9.104;2023-02-15T02:48:49;15.23;;;11.73;;
8104;SDS011;4095;48.942;9.104;2023-02-15T02:51:15;15.50;;;12.23;;
8104;SDS011;4095;48.942;9.104;2023-02-15T02:53:46;16.63;;;12.83;;
8104;SDS011;4095;48.942;9.104;2023-02-15T02:56:24;14.57;;;11.87;;
8104;SDS011;4095;48.942;9.104;2023-02-15T02:59:08;16.27;;;12.00;;
8104;SDS011;4095;48.942;9.104;2023-02-15T03:01:41;13.30;;;11.90;;
8104;SDS011;4095;48.942;9.104;2023-02-15T03:04:25;14.53;;;11.90;;
8104;SDS011;4095;48.942;9.104;2023-02-15T03:07:38;15.10;;;11.77;;
8104;SDS011;4095;48.942;9.104;2023-02-15T03:09:48;15.50;;;12.90;;
8104;SDS011;4095;48.942;9.104;2023-02-15T03:14:48;17.37;;;11.43;;
8104;SDS011;4095;48.942;9.104;2023-02-15T03:17:18;13.53;;;11.67;;
8104;SDS011;4095;48.942;9.104;2023-02-15T03:19:46;13.80;;;10.97;;
8104;SDS011;4095;48.942;9.104;2023-02-15T03:22:18;14.90;;;11.40;;
8104;SDS011;4095;48.942;9.104;2023-02-15T03:25:02;15.30;;;12.23;;
8104;SDS011;4095;48.942;9.104;2023-02-15T03:27:40;15.33;;;12.03;;
8104;SDS011;4095;48.942;9.104;2023-02-15T03:30:08;15.20;;;11.47;;
8104;SDS011;4095;48.942;9.104;2023-02-15T03:32:36;19.73;;;12.53;;
8104;SDS011;4095;48.942;9.104;2023-02-15T03:35:04;15.53;;;12.40;;
8104;SDS011;4095;48.942;9.104;2023-02-15T03:37:46;15.87;;;12.80;;
8104;SDS011;4095;48.942;9.104;2023-02-15T03:43:19;16.77;;;12.07;;
8104;SDS011;4095;48.942;9.104;2023-02-15T03:45:54;17.00;;;12.77;;
8104;SDS011;4095;48.942;9.104;2023-02-15T03:48:31;16.03;;;12.50;;
8104;SDS011;4095;48.942;9.104;2023-02-15T03:51:03;14.53;;;12.33;;
8104;SDS011;4095;48.942;9.104;2023-02-15T03:53:55;18.90;;;13.13;;
8104;SDS011;4095;48.942;9.104;2023-02-15T03:56:22;16.33;;;13.03;;
8104;SDS011;4095;48.942;9.104;2023-02-15T03:58:47;16.63;;;12.67;;
8104;SDS011;4095;48.942;9.104;2023-02-15T04:01:33;15.83;;;12.53;;
8104;SDS011;4095;48.942;9.104;2023-02-15T04:04:22;17.63;;;13.07;;
8104;SDS011;4095;48.942;9.104;2023-02-15T04:06:55;16.33;;;12.97;;
8104;SDS011;4095;48.942;9.104;2023-02-15T04:09:22;15.50;;;12.90;;
8104;SDS011;4095;48.942;9.104;2023-02-15T04:12:06;16.50;;;13.40;;
8104;SDS011;4095;48.942;9.104;2023-02-15T04:14:32;15.40;;;12.67;;
8104;SDS011;4095;48.942;9.104;2023-02-15T04:17:16;17.27;;;12.43;;
8104;SDS011;4095;48.942;9.104;2023-02-15T04:19:42;21.60;;;13.60;;
8104;SDS011;4095;48.942;9.104;2023-02-15T04:22:26;16.87;;;13.67;;
8104;SDS011;4095;48.942;9.104;2023-02-15T04:25:10;19.50;;;14.00;;
8104;SDS011;4095;48.942;9.104;2023-02-15T04:27:39;17.87;;;14.17;;
8104;SDS011;4095;48.942;9.104;2023-02-15T04:30:06;17.27;;;12.93;;
8104;SDS011;4095;48.942;9.104;2023-02-15T04:32:33;17.93;;;14.17;;
8104;SDS011;4095;48.942;9.104;2023-02-15T04:34:59;17.07;;;13.37;;
8104;SDS011;4095;48.942;9.104;2023-02-15T04:37:25;20.63;;;14.13;;
8104;SDS011;4095;48.942;9.104;2023-02-15T04:39:51;20.07;;;13.90;;
8104;SDS011;4095;48.942;9.104;2023-02-15T04:42:16;24.67;;;16.13;;
8104;SDS011;4095;48.942;9.104;2023-02-15T04:44:42;20.87;;;15.10;;
8104;SDS011;4095;48.942;9.104;2023-02-15T04:47:08;17.40;;;14.30;;
8104;SDS011;4095;48.942;9.104;2023-02-15T04:49:33;23.33;;;16.67;;
8104;SDS011;4095;48.942;9.104;2023-02-15T04:51:59;20.80;;;15.13;;
8104;SDS011;4095;48.942;9.104;2023-02-15T04:54:25;18.77;;;15.10;;
8104;SDS011;4095;48.942;9.104;2023-02-15T04:56:50;17.80;;;13.93;;
8104;SDS011;4095;48.942;9.104;2023-02-15T04:59:16;20.77;;;15.87;;
8104;SDS011;4095;48.942;9.104;2023-02-15T05:01:41;19.73;;;14.47;;
8104;SDS011;4095;48.942;9.104;2023-02-15T05:04:07;18.67;;;14.70;;
8104;SDS011;4095;48.942;9.104;2023-02-15T05:06:33;19.80;;;15.40;;
8104;SDS011;4095;48.942;9.104;2023-02-15T05:08:58;17.53;;;14.43;;
8104;SDS011;4095;48.942;9.104;2023-02-15T05:11:24;18.10;;;14.50;;
8104;SDS011;4095;48.942;9.104;2023-02-15T05:13:50;24.50;;;17.23;;
8104;SDS011;4095;48.942;9.104;2023-02-15T05:16:16;19.33;;;14.43;;
8104;SDS011;4095;48.942;9.104;2023-02-15T05:18:42;20.10;;;15.97;;
8104;SDS011;4095;48.942;9.104;2023-02-15T05:21:08;20.17;;;15.33;;
8104;SDS011;4095;48.942;9.104;2023-02-15T05:23:33;18.27;;;13.77;;
8104;SDS011;4095;48.942;9.104;2023-02-15T05:25:59;19.50;;;14.27;;
8104;SDS011;4095;48.942;9.104;2023-02-15T05:28:43;19.03;;;13.83;;
8104;SDS011;4095;48.942;9.104;2023-02-15T05:31:13;20.47;;;14.60;;
8104;SDS011;4095;48.942;9.104;2023-02-15T05:33:40;19.80;;;15.63;;
8104;SDS011;4095;48.942;9.104;2023-02-15T05:36:06;19.00;;;14.83;;
8104;SDS011;4095;48.942;9.104;2023-02-15T05:38:32;21.83;;;16.03;;
8104;SDS011;4095;48.942;9.104;2023-02-15T05:40:58;20.43;;;15.70;;
8104;SDS011;4095;48.942;9.104;2023-02-15T05:43:24;21.57;;;17.23;;
8104;SDS011;4095;48.942;9.104;2023-02-15T05:45:51;20.00;;;14.90;;
8104;SDS011;4095;48.942;9.104;2023-02-15T05:48:18;24.57;;;16.27;;
8104;SDS011;4095;48.942;9.104;2023-02-15T05:50:45;17.93;;;14.07;;
8104;SDS011;4095;48.942;9.104;2023-02-15T05:53:11;18.97;;;14.90;;
8104;SDS011;4095;48.942;9.104;2023-02-15T05:55:40;19.90;;;16.40;;
8104;SDS011;4095;48.942;9.104;2023-02-15T05:58:06;20.80;;;15.67;;
8104;SDS011;4095;48.942;9.104;2023-02-15T06:00:33;20.07;;;15.40;;
8104;SDS011;4095;48.942;9.104;2023-02-15T06:02:59;19.63;;;14.63;;
8104;SDS011;4095;48.942;9.104;2023-02-15T06:05:25;20.83;;;15.17;;
8104;SDS011;4095;48.942;9.104;2023-02-15T06:07:50;19.80;;;15.27;;
8104;SDS011;4095;48.942;9.104;2023-02-15T06:10:16;19.63;;;15.17;;
8104;SDS011;4095;48.942;9.104;2023-02-15T06:12:41;19.60;;;15.00;;
8104;SDS011;4095;48.942;9.104;2023-02-15T06:15:09;19.57;;;14.23;;
8104;SDS011;4095;48.942;9.104;2023-02-15T06:17:34;17.30;;;14.27;;
8104;SDS011;4095;48.942;9.104;2023-02-15T06:20:00;20.17;;;14.80;;
8104;SDS011;4095;48.942;9.104;2023-02-15T06:22:25;17.50;;;14.27;;
8104;SDS011;4095;48.942;9.104;2023-02-15T06:24:51;16.70;;;13.70;;
8104;SDS011;4095;48.942;9.104;2023-02-15T06:27:16;20.87;;;15.17;;
8104;SDS011;4095;48.942;9.104;2023-02-15T06:29:42;18.10;;;14.77;;
8104;SDS011;4095;48.942;9.104;2023-02-15T06:32:08;19.23;;;15.60;;
8104;SDS011;4095;48.942;9.104;2023-02-15T06:34:33;16.50;;;13.87;;
8104;SDS011;4095;48.942;9.104;2023-02-15T06:36:59;20.63;;;14.10;;
8104;SDS011;4095;48.942;9.104;2023-02-15T06:39:24;19.23;;;14.63;;
8104;SDS011;4095;48.942;9.104;2023-02-15T06:41:50;19.53;;;14.03;;
8104;SDS011;4095;48.942;9.104;2023-02-15T06:44:16;18.07;;;14.63;;
8104;SDS011;4095;48.942;9.104;2023-02-15T06:46:42;18.83;;;13.73;;
8104;SDS011;4095;48.942;9.104;2023-02-15T06:49:07;18.63;;;13.87;;
8104;SDS011;4095;48.942;9.104;2023-02-15T06:51:33;18.60;;;14.47;;
8104;SDS011;4095;48.942;9.104;2023-02-15T06:53:59;19.47;;;14.80;;
8104;SDS011;4095;48.942;9.104;2023-02-15T06:56:25;17.20;;;14.10;;
8104;SDS011;4095;48.942;9.104;2023-02-15T06:58:50;19.37;;;14.53;;
8104;SDS011;4095;48.942;9.104;2023-02-15T07:01:17;19.87;;;15.40;;
8104;SDS011;4095;48.942;9.104;2023-02-15T07:03:43;20.20;;;14.57;;
8104;SDS011;4095;48.942;9.104;2023-02-15T07:06:09;19.63;;;14.80;;
8104;SDS011;4095;48.942;9.104;2023-02-15T07:08:35;20.53;;;15.53;;
8104;SDS011;4095;48.942;9.104;2023-02-15T07:11:02;20.23;;;15.03;;
8104;SDS011;4095;48.942;9.104;2023-02-15T07:13:46;20.70;;;14.77;;
8104;SDS011;4095;48.942;9.104;2023-02-15T07:16:12;18.43;;;15.60;;
8104;SDS011;4095;48.942;9.104;2023-02-15T07:18:38;20.13;;;15.43;;
8104;SDS011;4095;48.942;9.104;2023-02-15T07:21:04;20.40;;;15.53;;
8104;SDS011;4095;48.942;9.104;2023-02-15T07:23:33;19.37;;;15.17;;
8104;SDS011;4095;48.942;9.104;2023-02-15T07:26:02;20.33;;;15.20;;
8104;SDS011;4095;48.942;9.104;2023-02-15T07:28:28;21.03;;;15.97;;
8104;SDS011;4095;48.942;9.104;2023-02-15T07:30:54;21.00;;;16.37;;
8104;SDS011;4095;48.942;9.104;2023-02-15T07:33:19;21.23;;;15.57;;
8104;SDS011;4095;48.942;9.104;2023-02-15T07:35:48;19.67;;;15.03;;
8104;SDS011;4095;48.942;9.104;2023-02-15T07:38:19;19.90;;;15.20;;
8104;SDS011;4095;48.942;9.104;2023-02-15T07:40:45;20.53;;;16.13;;
8104;SDS011;4095;48.942;9.104;2023-02-15T07:43:11;18.60;;;15.23;;
8104;SDS011;4095;48.942;9.104;2023-02-15T07:45:37;20.17;;;15.30;;
8104;SDS011;4095;48.942;9.104;2023-02-15T07:48:03;22.43;;;16.17;;
8104;SDS011;4095;48.942;9.104;2023-02-15T07:50:29;20.90;;;15.70;;
8104;SDS011;4095;48.942;9.104;2023-02-15T07:52:55;20.83;;;16.20;;
8104;SDS011;4095;48.942;9.104;2023-02-15T07:55:21;20.77;;;15.43;;
8104;SDS011;4095;48.942;9.104;2023-02-15T07:57:47;22.77;;;16.43;;
8104;SDS011;4095;48.942;9.104;2023-02-15T08:00:15;20.60;;;15.63;;
8104;SDS011;4095;48.942;9.104;2023-02-15T08:02:42;19.60;;;15.03;;
8104;SDS011;4095;48.942;9.104;2023-02-15T08:05:37;21.43;;;15.97;;
8104;SDS011;4095;48.942;9.104;2023-02-15T08:08:04;19.20;;;15.13;;
8104;SDS011;4095;48.942;9.104;2023-02-15T08:10:30;18.47;;;15.33;;
8104;SDS011;4095;48.942;9.104;2023-02-15T08:13:14;19.83;;;16.13;;
8104;SDS011;4095;48.942;9.104;2023-02-15T08:15:40;22.07;;;16.60;;
8104;SDS011;4095;48.942;9.104;2023-02-15T08:18:13;22.50;;;15.93;;
8104;SDS011;4095;48.942;9.104;2023-02-15T08:20:39;21.70;;;15.90;;
8104;SDS011;4095;48.942;9.104;2023-02-15T08:23:05;21.67;;;15.87;;
8104;SDS011;4095;48.942;9.104;2023-02-15T08:25:30;22.33;;;16.87;;
8104;SDS011;4095;48.942;9.104;2023-02-15T08:27:56;22.50;;;17.37;;
8104;SDS011;4095;48.942;9.104;2023-02-15T08:30:21;22.93;;;17.30;;
8104;SDS011;4095;48.942;9.104;2023-02-15T08:32:47;22.30;;;17.23;;
8104;SDS011;4095;48.942;9.104;2023-02-15T08:35:13;22.37;;;17.57;;
8104;SDS011;4095;48.942;9.104;2023-02-15T08:37:38;22.50;;;17.53;;
8104;SDS011;4095;48.942;9.104;2023-02-15T08:40:04;24.53;;;18.03;;
8104;SDS011;4095;48.942;9.104;2023-02-15T08:42:32;25.33;;;18.03;;
8104;SDS011;4095;48.942;9.104;2023-02-15T08:44:58;24.13;;;17.43;;
8104;SDS011;4095;48.942;9.104;2023-02-15T08:47:24;20.47;;;17.07;;
8104;SDS011;4095;48.942;9.104;2023-02-15T08:49:49;24.07;;;17.50;;
8104;SDS011;4095;48.942;9.104;2023-02-15T08:52:16;25.17;;;17.47;;
8104;SDS011;4095;48.942;9.104;2023-02-15T08:54:42;22.30;;;17.10;;
8104;SDS011;4095;48.942;9.104;2023-02-15T08:57:08;23.33;;;17.40;;
8104;SDS011;4095;48.942;9.104;2023-02-15T08:59:35;24.00;;;17.83;;
8104;SDS011;4095;48.942;9.104;2023-02-15T09:02:01;24.70;;;17.33;;
8104;SDS011;4095;48.942;9.104;2023-02-15T09:04:27;21.50;;;16.13;;
8104;SDS011;4095;48.942;9.104;2023-02-15T09:06:53;23.93;;;18.40;;
8104;SDS011;4095;48.942;9.104;2023-02-15T09:09:20;23.50;;;18.23;;
8104;SDS011;4095;48.942;9.104;2023-02-15T09:11:47;25.83;;;18.20;;
8104;SDS011;4095;48.942;9.104;2023-02-15T09:14:16;23.20;;;17.47;;
8104;SDS011;4095;48.942;9.104;2023-02-15T09:16:45;20.90;;;17.03;;
8104;SDS011;4095;48.942;9.104;2023-02-15T09:19:13;21.40;;;16.83;;
8104;SDS011;4095;48.942;9.104;2023-02-15T09:21:40;23.63;;;17.57;;
8104;SDS011;4095;48.942;9.104;2023-02-15T09:24:10;21.60;;;17.33;;
8104;SDS011;4095;48.942;9.104;2023-02-15T09:26:38;22.23;;;16.97;;
8104;SDS011;4095;48.942;9.104;2023-02-15T09:29:08;21.00;;;16.80;;
8104;SDS011;4095;48.942;9.104;2023-02-15T09:31:42;23.07;;;16.43;;
8104;SDS011;4095;48.942;9.104;2023-02-15T09:34:10;20.33;;;16.30;;
8104;SDS011;4095;48.942;9.104;2023-02-15T09:36:38;20.73;;;16.70;;
8104;SDS011;4095;48.942;9.104;2023-02-15T09:39:18;22.47;;;17.10;;
8104;SDS011;4095;48.942;9.104;2023-02-15T09:46:57;22.50;;;17.13;;
8104;SDS011;4095;48.942;9.104;2023-02-15T09:49:31;23.00;;;17.73;;
8104;SDS011;4095;48.942;9.104;2023-02-15T09:57:36;23.40;;;17.67;;
8104;SDS011;4095;48.942;9.104;2023-02-15T10:02:51;27.50;;;19.90;;
8104;SDS011;4095;48.942;9.104;2023-02-15T10:27:45;26.13;;;20.73;;
8104;SDS011;4095;48.942;9.104;2023-02-15T10:30:14;27.53;;;21.40;;
8104;SDS011;4095;48.942;9.104;2023-02-15T10:33:00;25.67;;;20.57;;
8104;SDS011;4095;48.942;9.104;2023-02-15T10:38:19;24.93;;;20.07;;
8104;SDS011;4095;48.942;9.104;2023-02-15T10:40:59;23.77;;;19.00;;
8104;SDS011;4095;48.942;9.104;2023-02-15T10:46:57;27.07;;;20.73;;
8104;SDS011;4095;48.942;9.104;2023-02-15T10:55:13;28.23;;;21.03;;
8104;SDS011;4095;48.942;9.104;2023-02-15T10:57:49;26.73;;;20.50;;
8104;SDS011;4095;48.942;9.104;2023-02-15T11:00:54;24.90;;;20.73;;
8104;SDS011;4095;48.942;9.104;2023-02-15T11:06:24;24.80;;;20.37;;
8104;SDS011;4095;48.942;9.104;2023-02-15T11:09:02;27.43;;;21.27;;
8104;SDS011;4095;48.942;9.104;2023-02-15T11:11:37;26.37;;;20.63;;
8104;SDS011;4095;48.942;9.104;2023-02-15T11:14:10;26.37;;;20.50;;
8104;SDS011;4095;48.942;9.104;2023-02-15T11:16:44;26.57;;;20.93;;
8104;SDS011;4095;48.942;9.104;2023-02-15T11:19:17;26.67;;;21.87;;
8104;SDS011;4095;48.942;9.104;2023-02-15T11:21:53;25.83;;;21.60;;
8104;SDS011;4095;48.942;9.104;2023-02-15T11:24:26;26.03;;;22.03;;
8104;SDS011;4095;48.942;9.104;2023-02-15T11:27:00;25.23;;;21.30;;
8104;SDS011;4095;48.942;9.104;2023-02-15T11:29:31;24.57;;;19.97;;
8104;SDS011;4095;48.942;9.104;2023-02-15T11:32:26;25.00;;;20.33;;
8104;SDS011;4095;48.942;9.104;2023-02-15T11:34:56;23.80;;;20.00;;
8104;SDS011;4095;48.942;9.104;2023-02-15T11:37:34;23.50;;;19.33;;
8104;SDS011;4095;48.942;9.104;2023-02-15T11:40:17;25.70;;;20.37;;
8104;SDS011;4095;48.942;9.104;2023-02-15T11:42:49;23.37;;;20.00;;
8104;SDS011;4095;48.942;9.104;2023-02-15T11:45:33;22.47;;;18.73;;
8104;SDS011;4095;48.942;9.104;2023-02-15T11:47:59;21.63;;;18.20;;
8104;SDS011;4095;48.942;9.104;2023-02-15T11:50:27;22.20;;;19.67;;
8104;SDS011;4095;48.942;9.104;2023-02-15T11:52:57;21.33;;;19.03;;
8104;SDS011;4095;48.942;9.104;2023-02-15T11:55:27;21.37;;;18.80;;
8104;SDS011;4095;48.942;9.104;2023-02-15T11:57:55;21.80;;;18.80;;
8104;SDS011;4095;48.942;9.104;2023-02-15T12:00:33;20.97;;;17.60;;
8104;SDS011;4095;48.942;9.104;2023-02-15T12:03:09;20.60;;;18.03;;
8104;SDS011;4095;48.942;9.104;2023-02-15T12:05:42;20.10;;;18.00;;
8104;SDS011;4095;48.942;9.104;2023-02-15T12:08:12;20.63;;;17.67;;
8104;SDS011;4095;48.942;9.104;2023-02-15T12:10:55;21.33;;;18.23;;
8104;SDS011;4095;48.942;9.104;2023-02-15T12:13:25;20.20;;;18.00;;
8104;SDS011;4095;48.942;9.104;2023-02-15T12:15:52;20.40;;;18.10;;
8104;SDS011;4095;48.942;9.104;2023-02-15T12:20:51;19.90;;;17.80;;
8104;SDS011;4095;48.942;9.104;2023-02-15T12:23:17;20.57;;;18.37;;
8104;SDS011;4095;48.942;9.104;2023-02-15T12:25:53;21.83;;;18.33;;
8104;SDS011;4095;48.942;9.104;2023-02-15T12:30:49;22.10;;;19.90;;
8104;SDS011;4095;48.942;9.104;2023-02-15T12:35:54;20.27;;;18.17;;
8104;SDS011;4095;48.942;9.104;2023-02-15T12:38:34;20.73;;;18.50;;
8104;SDS011;4095;48.942;9.104;2023-02-15T12:41:01;19.93;;;17.83;;
8104;SDS011;4095;48.942;9.104;2023-02-15T12:43:46;20.77;;;18.70;;
8104;SDS011;4095;48.942;9.104;2023-02-15T12:56:59;19.53;;;17.40;;
8104;SDS011;4095;48.942;9.104;2023-02-15T12:59:47;19.70;;;17.60;;
8104;SDS011;4095;48.942;9.104;2023-02-15T13:02:20;19.80;;;17.07;;
8104;SDS011;4095;48.942;9.104;2023-02-15T13:05:13;17.57;;;15.87;;
8104;SDS011;4095;48.942;9.104;2023-02-15T13:07:48;19.23;;;17.43;;
8104;SDS011;4095;48.942;9.104;2023-02-15T13:10:40;19.13;;;17.13;;
8104;SDS011;4095;48.942;9.104;2023-02-15T13:13:18;18.70;;;16.77;;
8104;SDS011;4095;48.942;9.104;2023-02-15T13:15:48;19.70;;;17.43;;
8104;SDS011;4095;48.942;9.104;2023-02-15T13:18:16;19.23;;;17.17;;
8104;SDS011;4095;48.942;9.104;2023-02-15T13:20:49;19.57;;;17.67;;
8104;SDS011;4095;48.942;9.104;2023-02-15T13:23:26;19.20;;;17.30;;
8104;SDS011;4095;48.942;9.104;2023-02-15T13:25:54;19.50;;;17.60;;
8104;SDS011;4095;48.942;9.104;2023-02-15T13:28:23;19.87;;;17.83;;
8104;SDS011;4095;48.942;9.104;2023-02-15T13:30:57;19.53;;;17.43;;
8104;SDS011;4095;48.942;9.104;2023-02-15T13:33:25;20.63;;;18.53;;
8104;SDS011;4095;48.942;9.104;2023-02-15T13:36:05;21.03;;;18.63;;
8104;SDS011;4095;48.942;9.104;2023-02-15T13:42:04;21.30;;;19.03;;
8104;SDS011;4095;48.942;9.104;2023-02-15T13:50:33;22.23;;;19.83;;
8104;SDS011;4095;48.942;9.104;2023-02-15T13:55:49;22.07;;;19.00;;
8104;SDS011;4095;48.942;9.104;2023-02-15T13:58:26;22.90;;;19.77;;
8104;SDS011;4095;48.942;9.104;2023-02-15T14:12:29;23.93;;;20.30;;
8104;SDS011;4095;48.942;9.104;2023-02-15T14:19:56;21.40;;;19.10;;
8104;SDS011;4095;48.942;9.104;2023-02-15T14:22:36;21.93;;;19.70;;
8104;SDS011;4095;48.942;9.104;2023-02-15T14:25:25;23.77;;;19.80;;
8104;SDS011;4095;48.942;9.104;2023-02-15T14:30:41;21.47;;;18.37;;
8104;SDS011;4095;48.942;9.104;2023-02-15T14:35:39;20.70;;;18.60;;
8104;SDS011;4095;48.942;9.104;2023-02-15T14:43:39;22.20;;;19.90;;
8104;SDS011;4095;48.942;9.104;2023-02-15T14:47:01;22.33;;;19.93;;
8104;SDS011;4095;48.942;9.104;2023-02-15T14:49:21;20.80;;;18.70;;
8104;SDS011;4095;48.942;9.104;2023-02-15T14:51:55;20.63;;;18.40;;
8104;SDS011;4095;48.942;9.104;2023-02-15T14:59:27;21.70;;;18.40;;
8104;SDS011;4095;48.942;9.104;2023-02-15T15:09:29;24.00;;;19.73;;
8104;SDS011;4095;48.942;9.104;2023-02-15T15:14:42;22.77;;;20.37;;
8104;SDS011;4095;48.942;9.104;2023-02-15T15:19:57;21.67;;;19.33;;
8104;SDS011;4095;48.942;9.104;2023-02-15T15:22:27;24.00;;;19.67;;
8104;SDS011;4095;48.942;9.104;2023-02-15T15:25:07;27.27;;;21.63;;
8104;SDS011;4095;48.942;9.104;2023-02-15T15:44:11;22.83;;;19.73;;
8104;SDS011;4095;48.942;9.104;2023-02-15T15:49:28;22.37;;;19.93;;
8104;SDS011;4095;48.942;9.104;2023-02-15T15:51:59;23.33;;;20.83;;
8104;SDS011;4095;48.942;9.104;2023-02-15T15:54:37;27.97;;;21.23;;
8104;SDS011;4095;48.942;9.104;2023-02-15T15:57:04;25.37;;;22.67;;
8104;SDS011;4095;48.942;9.104;2023-02-15T15:59:36;28.23;;;25.13;;
8104;SDS011;4095;48.942;9.104;2023-02-15T16:02:10;24.30;;;21.73;;
8104;SDS011;4095;48.942;9.104;2023-02-15T16:04:40;24.90;;;22.17;;
8104;SDS011;4095;48.942;9.104;2023-02-15T16:07:13;25.63;;;21.77;;
8104;SDS011;4095;48.942;9.104;2023-02-15T16:12:28;26.20;;;22.23;;
8104;SDS011;4095;48.942;9.104;2023-02-15T16:14:57;29.50;;;23.63;;
8104;SDS011;4095;48.942;9.104;2023-02-15T16:17:26;34.97;;;26.40;;
8104;SDS011;4095;48.942;9.104;2023-02-15T16:20:11;29.90;;;24.27;;
8104;SDS011;4095;48.942;9.104;2023-02-15T16:28:20;27.80;;;22.67;;
8104;SDS011;4095;48.942;9.104;2023-02-15T16:30:54;26.70;;;22.73;;
8104;SDS011;4095;48.942;9.104;2023-02-15T16:33:37;30.33;;;23.70;;
8104;SDS011;4095;48.942;9.104;2023-02-15T16:36:04;28.23;;;22.80;;
8104;SDS011;4095;48.942;9.104;2023-02-15T16:41:29;27.20;;;22.33;;
8104;SDS011;4095;48.942;9.104;2023-02-15T16:43:54;25.83;;;21.40;;
8104;SDS011;4095;48.942;9.104;2023-02-15T16:46:36;26.20;;;22.27;;
8104;SDS011;4095;48.942;9.104;2023-02-15T16:49:07;27.47;;;22.70;;
8104;SDS011;4095;48.942;9.104;2023-02-15T16:52:00;26.40;;;22.10;;
8104;SDS011;4095;48.942;9.104;2023-02-15T16:54:30;25.43;;;21.53;;
8104;SDS011;4095;48.942;9.104;2023-02-15T16:56:57;25.60;;;21.27;;
8104;SDS011;4095;48.942;9.104;2023-02-15T16:59:38;27.60;;;20.47;;
8104;SDS011;4095;48.942;9.104;2023-02-15T17:02:19;27.20;;;21.77;;
8104;SDS011;4095;48.942;9.104;2023-02-15T17:05:05;25.43;;;21.53;;
8104;SDS011;4095;48.942;9.104;2023-02-15T17:07:31;25.77;;;20.97;;
8104;SDS011;4095;48.942;9.104;2023-02-15T17:09:58;27.70;;;22.07;;
8104;SDS011;4095;48.942;9.104;2023-02-15T17:15:25;24.97;;;22.00;;
8104;SDS011;4095;48.942;9.104;2023-02-15T17:17:51;28.33;;;22.47;;
8104;SDS011;4095;48.942;9.104;2023-02-15T17:20:17;28.13;;;22.57;;
8104;SDS011;4095;48.942;9.104;2023-02-15T17:22:44;26.63;;;22.47;;
8104;SDS011;4095;48.942;9.104;2023-02-15T17:25:16;29.07;;;22.83;;
8104;SDS011;4095;48.942;9.104;2023-02-15T17:27:49;24.47;;;20.97;;
8104;SDS011;4095;48.942;9.104;2023-02-15T17:30:22;26.87;;;22.50;;
8104;SDS011;4095;48.942;9.104;2023-02-15T17:32:57;30.93;;;22.33;;
8104;SDS011;4095;48.942;9.104;2023-02-15T17:35:36;27.37;;;22.63;;
8104;SDS011;4095;48.942;9.104;2023-02-15T17:38:15;26.93;;;22.10;;
8104;SDS011;4095;48.942;9.104;2023-02-15T17:40:42;27.13;;;21.87;;
8104;SDS011;4095;48.942;9.104;2023-02-15T17:43:08;26.83;;;21.37;;
8104;SDS011;4095;48.942;9.104;2023-02-15T17:45:35;26.73;;;21.53;;
8104;SDS011;4095;48.942;9.104;2023-02-15T17:48:05;28.97;;;22.37;;
8104;SDS011;4095;48.942;9.104;2023-02-15T17:50:31;27.83;;;22.00;;
8104;SDS011;4095;48.942;9.104;2023-02-15T17:52:58;30.40;;;22.60;;
8104;SDS011;4095;48.942;9.104;2023-02-15T17:55:25;27.83;;;21.63;;
8104;SDS011;4095;48.942;9.104;2023-02-15T17:58:10;28.03;;;22.50;;
8104;SDS011;4095;48.942;9.104;2023-02-15T18:00:38;29.33;;;22.13;;
8104;SDS011;4095;48.942;9.104;2023-02-15T18:03:37;30.03;;;23.47;;
8104;SDS011;4095;48.942;9.104;2023-02-15T18:06:30;30.87;;;23.00;;
8104;SDS011;4095;48.942;9.104;2023-02-15T18:09:15;28.03;;;22.67;;
8104;SDS011;4095;48.942;9.104;2023-02-15T18:12:02;27.40;;;21.17;;
8104;SDS011;4095;48.942;9.104;2023-02-15T18:14:45;25.97;;;20.60;;